Hlavní strana
METAR-TAF:

METAR-TAF

Letiště :

Mnichov, Německo

Letiště Mnichov

zeměpisná šířka: 48-21N, zeměpisná délka: 011-47E, výška: 453 m

Aktuální stav počasí

Zpráva byla vytvořena před 13 minutami, v 13:50 UTC
Východoseverovýchodní vítr 13 kt
Teplota 0°C
Vlhkost vzduchu 43%
Tlak 1018 hPa
Viditelnost 10 km a více
Žádná oblačnost pod 1500 m, nevyskytují se cumulonimby.

METAR: EDDM 241350Z 07013KT CAVOK 00/M11 Q1018 TEMPO 07015G25KT

Čas: 15:03 (14:03 UTC)

Předpověď počasí

Zpráva byla vytvořena před 3 hodinami a 3 minutami, v 11:00 UTC
Předpověď platná od 24 v 12 UTC do 25 v 18 UTC
Východoseverovýchodní vítr 15 kt s nárazy do 25 kt
Viditelnost 10 km a více
Žádná oblačnost pod 1500 m, nevyskytují se cumulonimby.
Změna
od 24 v 16 UTC do 24 v 18 UTC
Východoseverovýchodní vítr 12 kt
Dočasný
od 25 v 09 UTC do 25 v 17 UTC
Východní vítr 15 kt s nárazy do 25 kt

TAF: EDDM 241100Z 2412/2518 07015G25KT CAVOK BECMG 2416/2418 07012KT TEMPO 2509/2517 08015G25KT

Stav a předpovědi počasí z více než 4 000 letišť (zprávy METAR a TAF).

Červené a žluté tečky na mapě představují dostupné meteorologické stanice.

Když kurzor umístíte na tečku, zobrazí se název stanice.

Pak kliknutím zobrazíte stav a předpověď počasí.

Chcete-li změnit mapu, kliknutím na zelené tlačítko se znaménkem +mapu přiblížíte, kliknutím na zelené tlačítko se znaménkem – mapu oddálíte a kliknutím na zelené šipky přejdete na sousední mapy.


METAR-TAF: